sensor_id;sensor_type;location;lat;lon;timestamp;P1;durP1;ratioP1;P2;durP2;ratioP2
462;SDS011;218;51.902;9.542;2023-07-31T00:01:26;2.67;;;2.47;;
462;SDS011;218;51.902;9.542;2023-07-31T00:03:53;2.60;;;2.30;;
462;SDS011;218;51.902;9.542;2023-07-31T00:06:20;2.90;;;2.37;;
462;SDS011;218;51.902;9.542;2023-07-31T00:08:47;3.40;;;3.07;;
462;SDS011;218;51.902;9.542;2023-07-31T00:11:13;3.00;;;2.80;;
462;SDS011;218;51.902;9.542;2023-07-31T00:13:40;2.33;;;2.13;;
462;SDS011;218;51.902;9.542;2023-07-31T00:16:09;2.53;;;2.33;;
462;SDS011;218;51.902;9.542;2023-07-31T00:18:35;2.10;;;1.90;;
462;SDS011;218;51.902;9.542;2023-07-31T00:21:02;2.23;;;1.97;;
462;SDS011;218;51.902;9.542;2023-07-31T00:23:29;2.20;;;2.00;;
462;SDS011;218;51.902;9.542;2023-07-31T00:25:56;2.47;;;2.27;;
462;SDS011;218;51.902;9.542;2023-07-31T00:28:22;1.60;;;1.50;;
462;SDS011;218;51.902;9.542;2023-07-31T00:30:49;2.00;;;1.90;;
462;SDS011;218;51.902;9.542;2023-07-31T00:33:17;1.80;;;1.70;;
462;SDS011;218;51.902;9.542;2023-07-31T00:35:44;1.93;;;1.83;;
462;SDS011;218;51.902;9.542;2023-07-31T00:38:11;1.90;;;1.80;;
462;SDS011;218;51.902;9.542;2023-07-31T00:40:38;1.53;;;1.43;;
462;SDS011;218;51.902;9.542;2023-07-31T00:43:05;2.50;;;1.60;;
462;SDS011;218;51.902;9.542;2023-07-31T00:45:32;2.00;;;1.90;;
462;SDS011;218;51.902;9.542;2023-07-31T00:47:59;1.87;;;1.77;;
462;SDS011;218;51.902;9.542;2023-07-31T00:50:27;2.20;;;1.47;;
462;SDS011;218;51.902;9.542;2023-07-31T00:52:54;1.87;;;1.77;;
462;SDS011;218;51.902;9.542;2023-07-31T00:55:21;2.03;;;1.80;;
462;SDS011;218;51.902;9.542;2023-07-31T00:57:49;1.77;;;1.67;;
462;SDS011;218;51.902;9.542;2023-07-31T01:00:17;1.80;;;1.70;;
462;SDS011;218;51.902;9.542;2023-07-31T01:02:44;1.90;;;1.80;;
462;SDS011;218;51.902;9.542;2023-07-31T01:05:11;1.77;;;1.67;;
462;SDS011;218;51.902;9.542;2023-07-31T01:07:42;2.10;;;1.63;;
462;SDS011;218;51.902;9.542;2023-07-31T01:10:15;1.70;;;1.60;;
462;SDS011;218;51.902;9.542;2023-07-31T01:12:46;1.97;;;1.87;;
462;SDS011;218;51.902;9.542;2023-07-31T01:15:15;2.30;;;2.17;;
462;SDS011;218;51.902;9.542;2023-07-31T01:17:42;2.10;;;2.00;;
462;SDS011;218;51.902;9.542;2023-07-31T01:20:10;1.80;;;1.70;;
462;SDS011;218;51.902;9.542;2023-07-31T01:22:49;1.93;;;1.83;;
462;SDS011;218;51.902;9.542;2023-07-31T01:25:46;1.90;;;1.80;;
462;SDS011;218;51.902;9.542;2023-07-31T01:28:37;1.83;;;1.73;;
462;SDS011;218;51.902;9.542;2023-07-31T01:31:13;1.90;;;1.80;;
462;SDS011;218;51.902;9.542;2023-07-31T01:33:44;2.40;;;1.77;;
462;SDS011;218;51.902;9.542;2023-07-31T01:36:12;1.80;;;1.70;;
462;SDS011;218;51.902;9.542;2023-07-31T01:38:39;2.00;;;1.90;;
462;SDS011;218;51.902;9.542;2023-07-31T01:41:07;2.00;;;1.73;;
462;SDS011;218;51.902;9.542;2023-07-31T01:43:34;3.37;;;1.70;;
462;SDS011;218;51.902;9.542;2023-07-31T01:46:01;1.80;;;1.70;;
462;SDS011;218;51.902;9.542;2023-07-31T01:48:28;1.67;;;1.57;;
462;SDS011;218;51.902;9.542;2023-07-31T01:51:00;2.20;;;2.10;;
462;SDS011;218;51.902;9.542;2023-07-31T01:53:28;1.77;;;1.67;;
462;SDS011;218;51.902;9.542;2023-07-31T01:55:55;1.80;;;1.70;;
462;SDS011;218;51.902;9.542;2023-07-31T01:58:24;1.80;;;1.70;;
462;SDS011;218;51.902;9.542;2023-07-31T02:00:51;1.87;;;1.77;;
462;SDS011;218;51.902;9.542;2023-07-31T02:03:18;2.30;;;2.10;;
462;SDS011;218;51.902;9.542;2023-07-31T02:05:45;1.80;;;1.70;;
462;SDS011;218;51.902;9.542;2023-07-31T02:08:12;2.20;;;2.00;;
462;SDS011;218;51.902;9.542;2023-07-31T02:10:39;1.87;;;1.77;;
462;SDS011;218;51.902;9.542;2023-07-31T02:13:06;1.70;;;1.60;;
462;SDS011;218;51.902;9.542;2023-07-31T02:15:35;2.03;;;1.93;;
462;SDS011;218;51.902;9.542;2023-07-31T02:18:02;1.63;;;1.53;;
462;SDS011;218;51.902;9.542;2023-07-31T02:20:29;2.10;;;1.90;;
462;SDS011;218;51.902;9.542;2023-07-31T02:22:59;2.30;;;2.10;;
462;SDS011;218;51.902;9.542;2023-07-31T02:25:26;1.70;;;1.60;;
462;SDS011;218;51.902;9.542;2023-07-31T02:27:52;2.67;;;2.47;;
462;SDS011;218;51.902;9.542;2023-07-31T02:30:19;1.77;;;1.67;;
462;SDS011;218;51.902;9.542;2023-07-31T02:32:47;1.70;;;1.60;;
462;SDS011;218;51.902;9.542;2023-07-31T02:35:15;2.57;;;2.33;;
462;SDS011;218;51.902;9.542;2023-07-31T02:37:43;2.50;;;2.30;;
462;SDS011;218;51.902;9.542;2023-07-31T02:40:10;2.20;;;2.00;;
462;SDS011;218;51.902;9.542;2023-07-31T02:42:38;3.60;;;2.00;;
462;SDS011;218;51.902;9.542;2023-07-31T02:45:05;2.50;;;2.30;;
462;SDS011;218;51.902;9.542;2023-07-31T02:47:33;2.10;;;2.00;;
462;SDS011;218;51.902;9.542;2023-07-31T02:50:01;1.70;;;1.63;;
462;SDS011;218;51.902;9.542;2023-07-31T02:52:28;1.63;;;1.53;;
462;SDS011;218;51.902;9.542;2023-07-31T02:54:55;3.27;;;1.70;;
462;SDS011;218;51.902;9.542;2023-07-31T02:57:22;3.30;;;1.70;;
462;SDS011;218;51.902;9.542;2023-07-31T02:59:49;2.30;;;1.90;;
462;SDS011;218;51.902;9.542;2023-07-31T03:02:16;1.80;;;1.70;;
462;SDS011;218;51.902;9.542;2023-07-31T03:04:43;1.70;;;1.60;;
462;SDS011;218;51.902;9.542;2023-07-31T03:07:11;1.90;;;1.80;;
462;SDS011;218;51.902;9.542;2023-07-31T03:09:38;1.70;;;1.60;;
462;SDS011;218;51.902;9.542;2023-07-31T03:12:06;1.40;;;1.40;;
462;SDS011;218;51.902;9.542;2023-07-31T03:14:34;1.30;;;1.30;;
462;SDS011;218;51.902;9.542;2023-07-31T03:17:01;1.80;;;1.70;;
462;SDS011;218;51.902;9.542;2023-07-31T03:19:29;1.60;;;1.50;;
462;SDS011;218;51.902;9.542;2023-07-31T03:21:57;2.03;;;1.93;;
462;SDS011;218;51.902;9.542;2023-07-31T03:24:25;1.77;;;1.67;;
462;SDS011;218;51.902;9.542;2023-07-31T03:26:52;1.90;;;1.80;;
462;SDS011;218;51.902;9.542;2023-07-31T03:29:19;1.50;;;1.40;;
462;SDS011;218;51.902;9.542;2023-07-31T03:31:45;1.87;;;1.73;;
462;SDS011;218;51.902;9.542;2023-07-31T03:34:12;3.00;;;1.70;;
462;SDS011;218;51.902;9.542;2023-07-31T03:36:39;1.60;;;1.50;;
462;SDS011;218;51.902;9.542;2023-07-31T03:39:06;1.50;;;1.40;;
462;SDS011;218;51.902;9.542;2023-07-31T03:41:34;1.97;;;1.53;;
462;SDS011;218;51.902;9.542;2023-07-31T03:44:01;2.20;;;1.57;;
462;SDS011;218;51.902;9.542;2023-07-31T03:46:28;1.50;;;1.40;;
462;SDS011;218;51.902;9.542;2023-07-31T03:48:55;3.27;;;1.40;;
462;SDS011;218;51.902;9.542;2023-07-31T03:51:21;1.73;;;1.30;;
462;SDS011;218;51.902;9.542;2023-07-31T03:53:49;1.90;;;1.80;;
462;SDS011;218;51.902;9.542;2023-07-31T03:56:15;1.57;;;1.47;;
462;SDS011;218;51.902;9.542;2023-07-31T03:58:44;1.50;;;1.40;;
462;SDS011;218;51.902;9.542;2023-07-31T04:01:10;1.30;;;1.30;;
462;SDS011;218;51.902;9.542;2023-07-31T04:03:37;1.50;;;1.40;;
462;SDS011;218;51.902;9.542;2023-07-31T04:06:04;1.40;;;1.30;;
462;SDS011;218;51.902;9.542;2023-07-31T04:08:32;1.70;;;1.60;;
462;SDS011;218;51.902;9.542;2023-07-31T04:10:59;1.83;;;1.60;;
462;SDS011;218;51.902;9.542;2023-07-31T04:13:26;1.90;;;1.80;;
462;SDS011;218;51.902;9.542;2023-07-31T04:15:56;2.17;;;2.00;;
462;SDS011;218;51.902;9.542;2023-07-31T04:18:24;2.83;;;2.00;;
462;SDS011;218;51.902;9.542;2023-07-31T04:20:51;2.43;;;2.23;;
462;SDS011;218;51.902;9.542;2023-07-31T04:23:19;3.43;;;2.30;;
462;SDS011;218;51.902;9.542;2023-07-31T04:25:46;2.83;;;2.63;;
462;SDS011;218;51.902;9.542;2023-07-31T04:28:13;3.00;;;2.70;;
462;SDS011;218;51.902;9.542;2023-07-31T04:30:40;2.60;;;2.40;;
462;SDS011;218;51.902;9.542;2023-07-31T04:33:08;4.87;;;3.30;;
462;SDS011;218;51.902;9.542;2023-07-31T04:35:35;4.27;;;3.80;;
462;SDS011;218;51.902;9.542;2023-07-31T04:38:02;3.90;;;3.53;;
462;SDS011;218;51.902;9.542;2023-07-31T04:40:29;4.00;;;3.60;;
462;SDS011;218;51.902;9.542;2023-07-31T04:42:56;6.63;;;4.10;;
462;SDS011;218;51.902;9.542;2023-07-31T04:45:23;4.97;;;4.47;;
462;SDS011;218;51.902;9.542;2023-07-31T04:47:50;7.00;;;4.30;;
462;SDS011;218;51.902;9.542;2023-07-31T04:50:18;5.80;;;4.30;;
462;SDS011;218;51.902;9.542;2023-07-31T04:52:46;3.90;;;3.50;;
462;SDS011;218;51.902;9.542;2023-07-31T04:55:13;6.70;;;4.10;;
462;SDS011;218;51.902;9.542;2023-07-31T04:57:40;5.60;;;4.23;;
462;SDS011;218;51.902;9.542;2023-07-31T05:00:07;4.30;;;3.90;;
462;SDS011;218;51.902;9.542;2023-07-31T05:02:34;8.07;;;4.70;;
462;SDS011;218;51.902;9.542;2023-07-31T05:05:01;6.30;;;5.67;;
462;SDS011;218;51.902;9.542;2023-07-31T05:07:30;6.90;;;5.20;;
462;SDS011;218;51.902;9.542;2023-07-31T05:09:57;5.50;;;5.00;;
462;SDS011;218;51.902;9.542;2023-07-31T05:12:24;4.93;;;4.43;;
462;SDS011;218;51.902;9.542;2023-07-31T05:14:51;5.20;;;4.70;;
462;SDS011;218;51.902;9.542;2023-07-31T05:17:19;9.10;;;4.80;;
462;SDS011;218;51.902;9.542;2023-07-31T05:19:45;5.50;;;4.90;;
462;SDS011;218;51.902;9.542;2023-07-31T05:22:13;5.23;;;4.80;;
462;SDS011;218;51.902;9.542;2023-07-31T05:24:41;6.03;;;5.00;;
462;SDS011;218;51.902;9.542;2023-07-31T05:27:08;6.23;;;4.80;;
462;SDS011;218;51.902;9.542;2023-07-31T05:29:35;7.97;;;4.80;;
462;SDS011;218;51.902;9.542;2023-07-31T05:32:02;5.40;;;4.73;;
462;SDS011;218;51.902;9.542;2023-07-31T05:34:30;4.47;;;4.03;;
462;SDS011;218;51.902;9.542;2023-07-31T05:36:56;5.23;;;4.67;;
462;SDS011;218;51.902;9.542;2023-07-31T05:39:24;5.07;;;4.10;;
462;SDS011;218;51.902;9.542;2023-07-31T05:41:52;6.73;;;4.43;;
462;SDS011;218;51.902;9.542;2023-07-31T05:44:19;5.10;;;4.60;;
462;SDS011;218;51.902;9.542;2023-07-31T05:46:46;4.93;;;4.43;;
462;SDS011;218;51.902;9.542;2023-07-31T05:49:12;5.40;;;4.43;;
462;SDS011;218;51.902;9.542;2023-07-31T05:51:39;5.63;;;4.60;;
462;SDS011;218;51.902;9.542;2023-07-31T05:54:07;5.70;;;5.10;;
462;SDS011;218;51.902;9.542;2023-07-31T05:56:33;6.57;;;5.07;;
462;SDS011;218;51.902;9.542;2023-07-31T05:59:02;6.00;;;4.90;;
462;SDS011;218;51.902;9.542;2023-07-31T06:01:30;5.70;;;5.20;;
462;SDS011;218;51.902;9.542;2023-07-31T06:03:57;5.50;;;5.00;;
462;SDS011;218;51.902;9.542;2023-07-31T06:06:24;7.53;;;5.70;;
462;SDS011;218;51.902;9.542;2023-07-31T06:08:51;5.60;;;4.50;;
462;SDS011;218;51.902;9.542;2023-07-31T06:11:18;6.90;;;5.57;;
462;SDS011;218;51.902;9.542;2023-07-31T06:13:46;6.67;;;5.60;;
462;SDS011;218;51.902;9.542;2023-07-31T06:16:15;6.90;;;5.23;;
462;SDS011;218;51.902;9.542;2023-07-31T06:18:42;6.13;;;5.53;;
462;SDS011;218;51.902;9.542;2023-07-31T06:21:09;8.13;;;5.60;;
462;SDS011;218;51.902;9.542;2023-07-31T06:23:36;7.80;;;5.80;;
462;SDS011;218;51.902;9.542;2023-07-31T06:26:03;5.70;;;5.20;;
462;SDS011;218;51.902;9.542;2023-07-31T06:28:31;4.90;;;4.50;;
462;SDS011;218;51.902;9.542;2023-07-31T06:30:58;8.50;;;5.03;;
462;SDS011;218;51.902;9.542;2023-07-31T06:33:27;8.67;;;5.60;;
462;SDS011;218;51.902;9.542;2023-07-31T06:35:54;6.13;;;5.43;;
462;SDS011;218;51.902;9.542;2023-07-31T06:38:22;6.00;;;5.00;;
462;SDS011;218;51.902;9.542;2023-07-31T06:40:51;5.80;;;5.30;;
462;SDS011;218;51.902;9.542;2023-07-31T06:43:17;5.50;;;5.10;;
462;SDS011;218;51.902;9.542;2023-07-31T06:45:44;8.93;;;6.27;;
462;SDS011;218;51.902;9.542;2023-07-31T06:48:13;7.53;;;6.27;;
462;SDS011;218;51.902;9.542;2023-07-31T06:50:41;10.07;;;5.53;;
462;SDS011;218;51.902;9.542;2023-07-31T06:53:08;5.93;;;5.43;;
462;SDS011;218;51.902;9.542;2023-07-31T06:55:37;5.63;;;5.10;;
462;SDS011;218;51.902;9.542;2023-07-31T06:58:04;5.70;;;5.13;;
462;SDS011;218;51.902;9.542;2023-07-31T07:00:30;6.17;;;5.10;;
462;SDS011;218;51.902;9.542;2023-07-31T07:02:58;9.40;;;6.43;;
462;SDS011;218;51.902;9.542;2023-07-31T07:05:25;7.57;;;6.37;;
462;SDS011;218;51.902;9.542;2023-07-31T07:07:54;7.57;;;6.43;;
462;SDS011;218;51.902;9.542;2023-07-31T07:10:21;9.67;;;6.57;;
462;SDS011;218;51.902;9.542;2023-07-31T07:12:48;6.80;;;5.20;;
462;SDS011;218;51.902;9.542;2023-07-31T07:15:15;7.20;;;6.50;;
462;SDS011;218;51.902;9.542;2023-07-31T07:17:42;7.97;;;6.77;;
462;SDS011;218;51.902;9.542;2023-07-31T07:20:09;8.00;;;5.60;;
462;SDS011;218;51.902;9.542;2023-07-31T07:22:36;5.80;;;5.20;;
462;SDS011;218;51.902;9.542;2023-07-31T07:25:05;6.83;;;5.87;;
462;SDS011;218;51.902;9.542;2023-07-31T07:27:33;6.87;;;5.17;;
462;SDS011;218;51.902;9.542;2023-07-31T07:30:00;7.60;;;5.27;;
462;SDS011;218;51.902;9.542;2023-07-31T07:32:27;6.23;;;5.73;;
462;SDS011;218;51.902;9.542;2023-07-31T07:34:54;5.70;;;5.10;;
462;SDS011;218;51.902;9.542;2023-07-31T07:37:22;6.40;;;5.63;;
462;SDS011;218;51.902;9.542;2023-07-31T07:39:49;5.83;;;4.57;;
462;SDS011;218;51.902;9.542;2023-07-31T07:42:17;10.17;;;5.53;;
462;SDS011;218;51.902;9.542;2023-07-31T07:44:44;6.20;;;5.00;;
462;SDS011;218;51.902;9.542;2023-07-31T07:47:12;5.33;;;4.80;;
462;SDS011;218;51.902;9.542;2023-07-31T07:49:39;5.43;;;4.93;;
462;SDS011;218;51.902;9.542;2023-07-31T07:52:06;7.10;;;5.07;;
462;SDS011;218;51.902;9.542;2023-07-31T07:54:33;7.63;;;4.30;;
462;SDS011;218;51.902;9.542;2023-07-31T07:57:00;5.03;;;4.53;;
462;SDS011;218;51.902;9.542;2023-07-31T07:59:29;5.53;;;5.03;;
462;SDS011;218;51.902;9.542;2023-07-31T08:01:56;5.70;;;5.00;;
462;SDS011;218;51.902;9.542;2023-07-31T08:04:23;9.47;;;6.70;;
462;SDS011;218;51.902;9.542;2023-07-31T08:06:51;5.23;;;4.60;;
462;SDS011;218;51.902;9.542;2023-07-31T08:09:18;5.37;;;4.87;;
462;SDS011;218;51.902;9.542;2023-07-31T08:11:45;7.43;;;4.90;;
462;SDS011;218;51.902;9.542;2023-07-31T08:14:12;5.10;;;4.53;;
462;SDS011;218;51.902;9.542;2023-07-31T08:16:41;6.10;;;4.30;;
462;SDS011;218;51.902;9.542;2023-07-31T08:19:08;7.40;;;4.60;;
462;SDS011;218;51.902;9.542;2023-07-31T08:21:35;5.37;;;4.27;;
462;SDS011;218;51.902;9.542;2023-07-31T08:24:02;5.37;;;4.77;;
462;SDS011;218;51.902;9.542;2023-07-31T08:26:30;5.47;;;4.40;;
462;SDS011;218;51.902;9.542;2023-07-31T08:28:57;5.47;;;5.07;;
462;SDS011;218;51.902;9.542;2023-07-31T08:31:24;6.13;;;4.87;;
462;SDS011;218;51.902;9.542;2023-07-31T08:33:53;5.10;;;4.67;;
462;SDS011;218;51.902;9.542;2023-07-31T08:36:20;5.37;;;4.67;;
462;SDS011;218;51.902;9.542;2023-07-31T08:38:47;5.10;;;4.60;;
462;SDS011;218;51.902;9.542;2023-07-31T08:41:15;6.23;;;5.03;;
462;SDS011;218;51.902;9.542;2023-07-31T08:43:43;5.87;;;4.40;;
462;SDS011;218;51.902;9.542;2023-07-31T08:46:10;5.17;;;4.67;;
462;SDS011;218;51.902;9.542;2023-07-31T08:48:39;4.90;;;4.50;;
462;SDS011;218;51.902;9.542;2023-07-31T08:51:09;5.67;;;5.17;;
462;SDS011;218;51.902;9.542;2023-07-31T08:53:36;5.10;;;4.70;;
462;SDS011;218;51.902;9.542;2023-07-31T08:56:03;5.83;;;5.17;;
462;SDS011;218;51.902;9.542;2023-07-31T08:58:31;5.33;;;4.57;;
462;SDS011;218;51.902;9.542;2023-07-31T09:00:59;5.00;;;4.50;;
462;SDS011;218;51.902;9.542;2023-07-31T09:03:27;5.20;;;4.70;;
462;SDS011;218;51.902;9.542;2023-07-31T09:05:56;4.73;;;4.33;;
462;SDS011;218;51.902;9.542;2023-07-31T09:08:26;4.30;;;3.90;;
462;SDS011;218;51.902;9.542;2023-07-31T09:10:58;4.57;;;4.17;;
462;SDS011;218;51.902;9.542;2023-07-31T09:13:26;5.13;;;4.50;;
462;SDS011;218;51.902;9.542;2023-07-31T09:15:54;4.60;;;4.20;;
462;SDS011;218;51.902;9.542;2023-07-31T09:18:21;4.40;;;3.87;;
462;SDS011;218;51.902;9.542;2023-07-31T09:20:59;4.87;;;4.03;;
462;SDS011;218;51.902;9.542;2023-07-31T09:23:29;3.70;;;3.40;;
462;SDS011;218;51.902;9.542;2023-07-31T09:26:06;5.33;;;4.83;;
462;SDS011;218;51.902;9.542;2023-07-31T09:28:33;4.50;;;3.93;;
462;SDS011;218;51.902;9.542;2023-07-31T09:31:01;5.43;;;4.33;;
462;SDS011;218;51.902;9.542;2023-07-31T09:33:28;4.17;;;3.87;;
462;SDS011;218;51.902;9.542;2023-07-31T09:35:56;4.70;;;4.30;;
462;SDS011;218;51.902;9.542;2023-07-31T09:38:25;6.70;;;4.37;;
462;SDS011;218;51.902;9.542;2023-07-31T09:40:54;4.40;;;4.00;;
462;SDS011;218;51.902;9.542;2023-07-31T09:43:22;4.27;;;3.80;;
462;SDS011;218;51.902;9.542;2023-07-31T09:45:54;4.40;;;4.00;;
462;SDS011;218;51.902;9.542;2023-07-31T09:48:22;7.40;;;4.17;;
462;SDS011;218;51.902;9.542;2023-07-31T09:50:51;3.60;;;3.30;;
462;SDS011;218;51.902;9.542;2023-07-31T09:53:18;5.30;;;4.37;;
462;SDS011;218;51.902;9.542;2023-07-31T09:55:46;4.60;;;4.20;;
462;SDS011;218;51.902;9.542;2023-07-31T09:58:14;5.43;;;4.50;;
462;SDS011;218;51.902;9.542;2023-07-31T10:00:41;4.60;;;4.20;;
462;SDS011;218;51.902;9.542;2023-07-31T10:03:09;4.20;;;3.90;;
462;SDS011;218;51.902;9.542;2023-07-31T10:05:37;4.30;;;3.90;;
462;SDS011;218;51.902;9.542;2023-07-31T10:08:06;5.63;;;3.60;;
462;SDS011;218;51.902;9.542;2023-07-31T10:10:33;5.17;;;4.47;;
462;SDS011;218;51.902;9.542;2023-07-31T10:13:02;5.83;;;4.20;;
462;SDS011;218;51.902;9.542;2023-07-31T10:15:31;4.50;;;4.10;;
462;SDS011;218;51.902;9.542;2023-07-31T10:17:58;6.17;;;4.27;;
462;SDS011;218;51.902;9.542;2023-07-31T10:20:26;5.10;;;4.60;;
462;SDS011;218;51.902;9.542;2023-07-31T10:22:53;3.97;;;3.67;;
462;SDS011;218;51.902;9.542;2023-07-31T10:25:21;4.80;;;4.40;;
462;SDS011;218;51.902;9.542;2023-07-31T10:27:49;4.30;;;3.90;;
462;SDS011;218;51.902;9.542;2023-07-31T10:30:18;4.30;;;3.90;;
462;SDS011;218;51.902;9.542;2023-07-31T10:32:48;5.30;;;4.53;;
462;SDS011;218;51.902;9.542;2023-07-31T10:35:15;4.13;;;3.73;;
462;SDS011;218;51.902;9.542;2023-07-31T10:37:42;4.40;;;3.97;;
462;SDS011;218;51.902;9.542;2023-07-31T10:40:10;4.73;;;4.33;;
462;SDS011;218;51.902;9.542;2023-07-31T10:42:45;4.67;;;4.30;;
462;SDS011;218;51.902;9.542;2023-07-31T10:45:13;4.93;;;4.50;;
462;SDS011;218;51.902;9.542;2023-07-31T10:47:42;4.20;;;3.80;;
462;SDS011;218;51.902;9.542;2023-07-31T10:50:16;4.77;;;4.37;;
462;SDS011;218;51.902;9.542;2023-07-31T10:52:44;6.40;;;4.73;;
462;SDS011;218;51.902;9.542;2023-07-31T10:57:56;4.83;;;3.70;;
462;SDS011;218;51.902;9.542;2023-07-31T11:00:25;5.93;;;4.47;;
462;SDS011;218;51.902;9.542;2023-07-31T11:02:59;5.80;;;3.80;;
462;SDS011;218;51.902;9.542;2023-07-31T11:05:47;5.03;;;4.43;;
462;SDS011;218;51.902;9.542;2023-07-31T11:08:15;5.67;;;3.97;;
462;SDS011;218;51.902;9.542;2023-07-31T11:10:43;9.20;;;4.27;;
462;SDS011;218;51.902;9.542;2023-07-31T11:13:11;4.27;;;3.63;;
462;SDS011;218;51.902;9.542;2023-07-31T11:15:38;4.93;;;4.43;;
462;SDS011;218;51.902;9.542;2023-07-31T11:18:05;4.10;;;3.70;;
462;SDS011;218;51.902;9.542;2023-07-31T11:20:33;4.33;;;3.97;;
462;SDS011;218;51.902;9.542;2023-07-31T11:23:02;3.90;;;3.60;;
462;SDS011;218;51.902;9.542;2023-07-31T11:25:30;4.03;;;3.47;;
462;SDS011;218;51.902;9.542;2023-07-31T11:27:57;8.20;;;4.30;;
462;SDS011;218;51.902;9.542;2023-07-31T11:30:24;3.83;;;3.63;;
462;SDS011;218;51.902;9.542;2023-07-31T11:32:51;4.43;;;4.03;;
462;SDS011;218;51.902;9.542;2023-07-31T11:35:19;3.70;;;3.40;;
462;SDS011;218;51.902;9.542;2023-07-31T11:37:46;4.30;;;4.00;;
462;SDS011;218;51.902;9.542;2023-07-31T11:40:15;3.90;;;3.60;;
462;SDS011;218;51.902;9.542;2023-07-31T11:42:42;4.10;;;3.67;;
462;SDS011;218;51.902;9.542;2023-07-31T11:45:09;3.63;;;3.33;;
462;SDS011;218;51.902;9.542;2023-07-31T11:47:37;4.77;;;3.77;;
462;SDS011;218;51.902;9.542;2023-07-31T11:50:04;5.20;;;4.20;;
462;SDS011;218;51.902;9.542;2023-07-31T11:52:34;3.60;;;3.30;;
462;SDS011;218;51.902;9.542;2023-07-31T11:55:03;3.77;;;3.47;;
462;SDS011;218;51.902;9.542;2023-07-31T11:57:32;4.30;;;3.90;;
462;SDS011;218;51.902;9.542;2023-07-31T11:59:59;3.90;;;3.60;;
462;SDS011;218;51.902;9.542;2023-07-31T12:02:27;4.33;;;3.97;;
462;SDS011;218;51.902;9.542;2023-07-31T12:04:55;3.63;;;3.30;;
462;SDS011;218;51.902;9.542;2023-07-31T12:07:23;3.80;;;3.50;;
462;SDS011;218;51.902;9.542;2023-07-31T12:09:51;5.87;;;3.40;;
462;SDS011;218;51.902;9.542;2023-07-31T12:12:19;3.20;;;3.00;;
462;SDS011;218;51.902;9.542;2023-07-31T12:14:48;3.07;;;2.77;;
462;SDS011;218;51.902;9.542;2023-07-31T12:17:17;3.77;;;3.00;;
462;SDS011;218;51.902;9.542;2023-07-31T12:19:44;2.97;;;2.77;;
462;SDS011;218;51.902;9.542;2023-07-31T12:22:11;4.23;;;2.70;;
462;SDS011;218;51.902;9.542;2023-07-31T12:24:39;2.50;;;2.30;;
462;SDS011;218;51.902;9.542;2023-07-31T12:27:10;2.57;;;2.30;;
462;SDS011;218;51.902;9.542;2023-07-31T12:29:37;2.30;;;2.07;;
462;SDS011;218;51.902;9.542;2023-07-31T12:32:19;2.43;;;2.00;;
462;SDS011;218;51.902;9.542;2023-07-31T12:34:46;2.33;;;2.20;;
462;SDS011;218;51.902;9.542;2023-07-31T12:37:13;1.80;;;1.70;;
462;SDS011;218;51.902;9.542;2023-07-31T12:39:40;2.40;;;1.90;;
462;SDS011;218;51.902;9.542;2023-07-31T12:42:07;1.80;;;1.70;;
462;SDS011;218;51.902;9.542;2023-07-31T12:44:34;1.80;;;1.70;;
462;SDS011;218;51.902;9.542;2023-07-31T12:47:02;2.73;;;1.57;;
462;SDS011;218;51.902;9.542;2023-07-31T12:49:31;2.00;;;1.90;;
462;SDS011;218;51.902;9.542;2023-07-31T12:51:58;2.30;;;1.87;;
462;SDS011;218;51.902;9.542;2023-07-31T12:54:25;1.70;;;1.60;;
462;SDS011;218;51.902;9.542;2023-07-31T12:56:52;1.80;;;1.70;;
462;SDS011;218;51.902;9.542;2023-07-31T12:59:19;1.80;;;1.70;;
462;SDS011;218;51.902;9.542;2023-07-31T13:01:46;1.70;;;1.60;;
462;SDS011;218;51.902;9.542;2023-07-31T13:04:13;2.03;;;1.60;;
462;SDS011;218;51.902;9.542;2023-07-31T13:06:42;1.70;;;1.60;;
462;SDS011;218;51.902;9.542;2023-07-31T13:09:09;1.57;;;1.47;;
462;SDS011;218;51.902;9.542;2023-07-31T13:11:36;2.40;;;1.60;;
462;SDS011;218;51.902;9.542;2023-07-31T13:14:03;1.73;;;1.47;;
462;SDS011;218;51.902;9.542;2023-07-31T13:16:31;1.70;;;1.60;;
462;SDS011;218;51.902;9.542;2023-07-31T13:18:58;1.73;;;1.63;;
462;SDS011;218;51.902;9.542;2023-07-31T13:21:25;1.70;;;1.60;;
462;SDS011;218;51.902;9.542;2023-07-31T13:23:53;2.03;;;1.93;;
462;SDS011;218;51.902;9.542;2023-07-31T13:26:23;2.00;;;1.80;;
462;SDS011;218;51.902;9.542;2023-07-31T13:28:50;1.80;;;1.70;;
462;SDS011;218;51.902;9.542;2023-07-31T13:31:17;1.70;;;1.60;;
462;SDS011;218;51.902;9.542;2023-07-31T13:33:44;1.80;;;1.70;;
462;SDS011;218;51.902;9.542;2023-07-31T13:36:11;1.83;;;1.73;;
462;SDS011;218;51.902;9.542;2023-07-31T13:38:39;1.90;;;1.80;;
462;SDS011;218;51.902;9.542;2023-07-31T13:41:07;1.70;;;1.60;;
462;SDS011;218;51.902;9.542;2023-07-31T13:43:35;2.17;;;2.07;;
462;SDS011;218;51.902;9.542;2023-07-31T13:46:02;1.93;;;1.83;;
462;SDS011;218;51.902;9.542;2023-07-31T13:48:31;3.80;;;1.80;;
462;SDS011;218;51.902;9.542;2023-07-31T13:50:59;2.93;;;2.00;;
462;SDS011;218;51.902;9.542;2023-07-31T13:53:26;1.80;;;1.70;;
462;SDS011;218;51.902;9.542;2023-07-31T13:55:53;1.80;;;1.70;;
462;SDS011;218;51.902;9.542;2023-07-31T13:58:22;1.90;;;1.70;;
462;SDS011;218;51.902;9.542;2023-07-31T14:00:49;2.73;;;2.53;;
462;SDS011;218;51.902;9.542;2023-07-31T14:03:16;1.50;;;1.40;;
462;SDS011;218;51.902;9.542;2023-07-31T14:05:43;2.03;;;1.93;;
462;SDS011;218;51.902;9.542;2023-07-31T14:08:10;2.07;;;1.97;;
462;SDS011;218;51.902;9.542;2023-07-31T14:10:37;1.90;;;1.80;;
462;SDS011;218;51.902;9.542;2023-07-31T14:13:04;1.70;;;1.60;;
462;SDS011;218;51.902;9.542;2023-07-31T14:15:33;2.17;;;1.43;;
462;SDS011;218;51.902;9.542;2023-07-31T14:18:01;1.43;;;1.33;;
462;SDS011;218;51.902;9.542;2023-07-31T14:20:28;2.73;;;2.53;;
462;SDS011;218;51.902;9.542;2023-07-31T14:22:55;2.50;;;2.30;;
462;SDS011;218;51.902;9.542;2023-07-31T14:25:23;2.30;;;2.13;;
462;SDS011;218;51.902;9.542;2023-07-31T14:27:50;2.47;;;2.27;;
462;SDS011;218;51.902;9.542;2023-07-31T14:30:17;2.60;;;2.20;;
462;SDS011;218;51.902;9.542;2023-07-31T14:32:46;2.47;;;2.30;;
462;SDS011;218;51.902;9.542;2023-07-31T14:35:13;2.80;;;2.23;;
462;SDS011;218;51.902;9.542;2023-07-31T14:37:41;2.10;;;2.00;;
462;SDS011;218;51.902;9.542;2023-07-31T14:40:09;2.00;;;1.80;;
462;SDS011;218;51.902;9.542;2023-07-31T14:42:37;3.30;;;2.53;;
462;SDS011;218;51.902;9.542;2023-07-31T14:45:08;2.33;;;2.13;;
462;SDS011;218;51.902;9.542;2023-07-31T14:47:35;2.10;;;2.00;;
462;SDS011;218;51.902;9.542;2023-07-31T14:50:04;2.03;;;1.93;;
462;SDS011;218;51.902;9.542;2023-07-31T14:52:32;2.07;;;1.87;;
462;SDS011;218;51.902;9.542;2023-07-31T14:54:59;1.90;;;1.80;;
462;SDS011;218;51.902;9.542;2023-07-31T14:57:26;2.57;;;2.37;;
462;SDS011;218;51.902;9.542;2023-07-31T14:59:53;2.20;;;1.90;;
462;SDS011;218;51.902;9.542;2023-07-31T15:02:20;2.03;;;1.83;;
462;SDS011;218;51.902;9.542;2023-07-31T15:04:48;2.37;;;2.17;;
462;SDS011;218;51.902;9.542;2023-07-31T15:07:16;2.00;;;1.90;;
462;SDS011;218;51.902;9.542;2023-07-31T15:09:43;2.43;;;2.30;;
462;SDS011;218;51.902;9.542;2023-07-31T15:12:10;2.23;;;2.10;;
462;SDS011;218;51.902;9.542;2023-07-31T15:14:38;2.60;;;2.10;;
462;SDS011;218;51.902;9.542;2023-07-31T15:17:05;2.07;;;1.83;;
462;SDS011;218;51.902;9.542;2023-07-31T15:19:32;3.33;;;2.53;;
462;SDS011;218;51.902;9.542;2023-07-31T15:22:01;2.13;;;2.03;;
462;SDS011;218;51.902;9.542;2023-07-31T15:24:30;2.53;;;2.43;;
462;SDS011;218;51.902;9.542;2023-07-31T15:26:57;2.10;;;2.00;;
462;SDS011;218;51.902;9.542;2023-07-31T15:29:27;3.00;;;2.30;;
462;SDS011;218;51.902;9.542;2023-07-31T15:31:54;2.17;;;2.03;;
462;SDS011;218;51.902;9.542;2023-07-31T15:34:21;2.50;;;2.30;;
462;SDS011;218;51.902;9.542;2023-07-31T15:36:49;3.00;;;2.80;;
462;SDS011;218;51.902;9.542;2023-07-31T15:39:16;3.20;;;2.47;;
462;SDS011;218;51.902;9.542;2023-07-31T15:41:45;2.67;;;2.47;;
462;SDS011;218;51.902;9.542;2023-07-31T15:44:12;2.70;;;2.50;;
462;SDS011;218;51.902;9.542;2023-07-31T15:46:39;2.10;;;1.97;;
462;SDS011;218;51.902;9.542;2023-07-31T15:49:06;2.73;;;2.53;;
462;SDS011;218;51.902;9.542;2023-07-31T15:51:34;2.77;;;2.57;;